sensor_id;sensor_type;location;lat;lon;timestamp;temperature;humidity
21047;DHT22;10682;50.874;3.656;2023-06-14T00:01:37;17.80;99.90
21047;DHT22;10682;50.874;3.656;2023-06-14T00:04:05;17.70;99.90
21047;DHT22;10682;50.874;3.656;2023-06-14T00:06:32;17.60;99.90
21047;DHT22;10682;50.874;3.656;2023-06-14T00:09:00;17.50;99.90
21047;DHT22;10682;50.874;3.656;2023-06-14T00:11:27;17.50;99.90
21047;DHT22;10682;50.874;3.656;2023-06-14T00:13:54;17.40;99.90
21047;DHT22;10682;50.874;3.656;2023-06-14T00:16:22;17.30;99.90
21047;DHT22;10682;50.874;3.656;2023-06-14T00:18:50;17.30;99.90
21047;DHT22;10682;50.874;3.656;2023-06-14T00:21:20;17.20;99.90
21047;DHT22;10682;50.874;3.656;2023-06-14T00:23:47;17.10;99.90
21047;DHT22;10682;50.874;3.656;2023-06-14T00:26:14;17.00;99.90
21047;DHT22;10682;50.874;3.656;2023-06-14T00:28:41;16.90;99.90
21047;DHT22;10682;50.874;3.656;2023-06-14T00:31:08;16.90;99.90
21047;DHT22;10682;50.874;3.656;2023-06-14T00:33:36;16.80;99.90
21047;DHT22;10682;50.874;3.656;2023-06-14T00:36:03;16.80;99.90
21047;DHT22;10682;50.874;3.656;2023-06-14T00:38:30;16.80;99.90
21047;DHT22;10682;50.874;3.656;2023-06-14T00:40:57;16.80;99.90
21047;DHT22;10682;50.874;3.656;2023-06-14T00:43:26;16.70;99.90
21047;DHT22;10682;50.874;3.656;2023-06-14T00:45:53;16.70;99.90
21047;DHT22;10682;50.874;3.656;2023-06-14T00:48:20;16.60;99.90
21047;DHT22;10682;50.874;3.656;2023-06-14T00:50:47;16.60;99.90
21047;DHT22;10682;50.874;3.656;2023-06-14T00:53:16;16.60;99.90
21047;DHT22;10682;50.874;3.656;2023-06-14T00:55:47;16.50;99.90
21047;DHT22;10682;50.874;3.656;2023-06-14T00:58:15;16.50;99.90
21047;DHT22;10682;50.874;3.656;2023-06-14T01:00:42;16.50;99.90
21047;DHT22;10682;50.874;3.656;2023-06-14T01:03:09;16.50;99.90
21047;DHT22;10682;50.874;3.656;2023-06-14T01:05:39;16.50;99.90
21047;DHT22;10682;50.874;3.656;2023-06-14T01:08:21;16.40;99.90
21047;DHT22;10682;50.874;3.656;2023-06-14T01:11:10;16.30;99.90
21047;DHT22;10682;50.874;3.656;2023-06-14T01:13:42;16.20;99.90
21047;DHT22;10682;50.874;3.656;2023-06-14T01:16:12;16.20;99.90
21047;DHT22;10682;50.874;3.656;2023-06-14T01:18:39;16.20;99.90
21047;DHT22;10682;50.874;3.656;2023-06-14T01:21:23;16.20;99.90
21047;DHT22;10682;50.874;3.656;2023-06-14T01:23:52;16.10;99.90
21047;DHT22;10682;50.874;3.656;2023-06-14T01:26:23;16.10;99.90
21047;DHT22;10682;50.874;3.656;2023-06-14T01:28:50;16.10;99.90
21047;DHT22;10682;50.874;3.656;2023-06-14T01:31:21;16.10;99.90
21047;DHT22;10682;50.874;3.656;2023-06-14T01:33:49;16.00;99.90
21047;DHT22;10682;50.874;3.656;2023-06-14T01:36:19;15.90;99.90
21047;DHT22;10682;50.874;3.656;2023-06-14T01:38:48;15.90;99.90
21047;DHT22;10682;50.874;3.656;2023-06-14T01:41:18;15.80;99.90
21047;DHT22;10682;50.874;3.656;2023-06-14T01:43:47;15.80;99.90
21047;DHT22;10682;50.874;3.656;2023-06-14T01:46:16;15.80;99.90
21047;DHT22;10682;50.874;3.656;2023-06-14T01:48:45;15.70;99.90
21047;DHT22;10682;50.874;3.656;2023-06-14T01:51:12;15.70;99.90
21047;DHT22;10682;50.874;3.656;2023-06-14T01:53:39;15.70;99.90
21047;DHT22;10682;50.874;3.656;2023-06-14T01:56:07;15.70;99.90
21047;DHT22;10682;50.874;3.656;2023-06-14T01:58:34;15.70;99.90
21047;DHT22;10682;50.874;3.656;2023-06-14T02:01:02;15.60;99.90
21047;DHT22;10682;50.874;3.656;2023-06-14T02:03:29;15.60;99.90
21047;DHT22;10682;50.874;3.656;2023-06-14T02:05:56;15.50;99.90
21047;DHT22;10682;50.874;3.656;2023-06-14T02:08:24;15.50;99.90
21047;DHT22;10682;50.874;3.656;2023-06-14T02:10:52;15.50;99.90
21047;DHT22;10682;50.874;3.656;2023-06-14T02:13:19;15.50;99.90
21047;DHT22;10682;50.874;3.656;2023-06-14T02:15:46;15.50;99.90
21047;DHT22;10682;50.874;3.656;2023-06-14T02:18:15;15.40;99.90
21047;DHT22;10682;50.874;3.656;2023-06-14T02:20:42;15.40;99.90
21047;DHT22;10682;50.874;3.656;2023-06-14T02:23:09;15.40;99.90
21047;DHT22;10682;50.874;3.656;2023-06-14T02:25:37;15.40;99.90
21047;DHT22;10682;50.874;3.656;2023-06-14T02:28:04;15.30;99.90
21047;DHT22;10682;50.874;3.656;2023-06-14T02:30:31;15.30;99.90
21047;DHT22;10682;50.874;3.656;2023-06-14T02:32:58;15.30;99.90
21047;DHT22;10682;50.874;3.656;2023-06-14T02:35:26;15.20;99.90
21047;DHT22;10682;50.874;3.656;2023-06-14T02:37:54;15.10;99.90
21047;DHT22;10682;50.874;3.656;2023-06-14T02:40:21;15.10;99.90
21047;DHT22;10682;50.874;3.656;2023-06-14T02:42:49;15.10;99.90
21047;DHT22;10682;50.874;3.656;2023-06-14T02:45:17;15.00;99.90
21047;DHT22;10682;50.874;3.656;2023-06-14T02:47:45;15.00;99.90
21047;DHT22;10682;50.874;3.656;2023-06-14T02:50:13;15.00;99.90
21047;DHT22;10682;50.874;3.656;2023-06-14T02:52:40;15.00;99.90
21047;DHT22;10682;50.874;3.656;2023-06-14T02:55:11;15.00;99.90
21047;DHT22;10682;50.874;3.656;2023-06-14T02:57:38;15.00;99.90
21047;DHT22;10682;50.874;3.656;2023-06-14T03:00:05;14.90;99.90
21047;DHT22;10682;50.874;3.656;2023-06-14T03:02:36;14.90;99.90
21047;DHT22;10682;50.874;3.656;2023-06-14T03:05:03;14.90;99.90
21047;DHT22;10682;50.874;3.656;2023-06-14T03:07:33;14.80;99.90
21047;DHT22;10682;50.874;3.656;2023-06-14T03:10:01;14.80;99.90
21047;DHT22;10682;50.874;3.656;2023-06-14T03:12:29;14.70;99.90
21047;DHT22;10682;50.874;3.656;2023-06-14T03:14:57;14.70;99.90
21047;DHT22;10682;50.874;3.656;2023-06-14T03:17:28;14.70;99.90
21047;DHT22;10682;50.874;3.656;2023-06-14T03:19:56;14.70;99.90
21047;DHT22;10682;50.874;3.656;2023-06-14T03:22:23;14.70;99.90
21047;DHT22;10682;50.874;3.656;2023-06-14T03:24:52;14.70;99.90
21047;DHT22;10682;50.874;3.656;2023-06-14T03:27:21;14.70;99.90
21047;DHT22;10682;50.874;3.656;2023-06-14T03:29:48;14.70;99.90
21047;DHT22;10682;50.874;3.656;2023-06-14T03:32:15;14.70;99.90
21047;DHT22;10682;50.874;3.656;2023-06-14T03:34:42;14.60;99.90
21047;DHT22;10682;50.874;3.656;2023-06-14T03:37:09;14.70;99.90
21047;DHT22;10682;50.874;3.656;2023-06-14T03:39:36;14.70;99.90
21047;DHT22;10682;50.874;3.656;2023-06-14T03:42:04;14.60;99.90
21047;DHT22;10682;50.874;3.656;2023-06-14T03:44:31;14.60;99.90
21047;DHT22;10682;50.874;3.656;2023-06-14T03:46:58;14.60;99.90
21047;DHT22;10682;50.874;3.656;2023-06-14T03:49:25;14.60;99.90
21047;DHT22;10682;50.874;3.656;2023-06-14T03:51:53;14.60;99.90
21047;DHT22;10682;50.874;3.656;2023-06-14T03:54:20;14.50;99.90
21047;DHT22;10682;50.874;3.656;2023-06-14T03:56:51;14.50;99.90
21047;DHT22;10682;50.874;3.656;2023-06-14T03:59:18;14.50;99.90
21047;DHT22;10682;50.874;3.656;2023-06-14T04:01:46;14.50;99.90
21047;DHT22;10682;50.874;3.656;2023-06-14T04:04:13;14.50;99.90
21047;DHT22;10682;50.874;3.656;2023-06-14T04:06:43;14.60;99.90
21047;DHT22;10682;50.874;3.656;2023-06-14T04:09:10;14.60;99.90
21047;DHT22;10682;50.874;3.656;2023-06-14T04:11:36;14.70;99.90
21047;DHT22;10682;50.874;3.656;2023-06-14T04:14:03;14.70;99.90
21047;DHT22;10682;50.874;3.656;2023-06-14T04:16:32;14.70;99.90
21047;DHT22;10682;50.874;3.656;2023-06-14T04:19:00;14.70;99.90
21047;DHT22;10682;50.874;3.656;2023-06-14T04:21:27;14.80;99.90
21047;DHT22;10682;50.874;3.656;2023-06-14T04:23:55;14.80;99.90
21047;DHT22;10682;50.874;3.656;2023-06-14T04:26:22;14.80;99.90
21047;DHT22;10682;50.874;3.656;2023-06-14T04:28:56;14.90;99.90
21047;DHT22;10682;50.874;3.656;2023-06-14T04:31:29;14.90;99.90
21047;DHT22;10682;50.874;3.656;2023-06-14T04:34:00;15.00;99.90
21047;DHT22;10682;50.874;3.656;2023-06-14T04:36:27;15.00;99.90
21047;DHT22;10682;50.874;3.656;2023-06-14T04:38:54;15.10;99.90
21047;DHT22;10682;50.874;3.656;2023-06-14T04:41:21;15.20;99.90
21047;DHT22;10682;50.874;3.656;2023-06-14T04:43:49;15.20;99.90
21047;DHT22;10682;50.874;3.656;2023-06-14T04:46:16;15.30;99.90
21047;DHT22;10682;50.874;3.656;2023-06-14T04:48:44;15.40;99.90
21047;DHT22;10682;50.874;3.656;2023-06-14T04:51:12;15.50;99.90
21047;DHT22;10682;50.874;3.656;2023-06-14T04:53:39;15.60;99.90
21047;DHT22;10682;50.874;3.656;2023-06-14T04:56:06;15.70;99.90
21047;DHT22;10682;50.874;3.656;2023-06-14T04:58:33;15.80;99.90
21047;DHT22;10682;50.874;3.656;2023-06-14T05:01:00;15.90;99.90
21047;DHT22;10682;50.874;3.656;2023-06-14T05:03:28;16.00;99.90
21047;DHT22;10682;50.874;3.656;2023-06-14T05:05:57;16.10;99.90
21047;DHT22;10682;50.874;3.656;2023-06-14T05:08:24;16.20;99.90
21047;DHT22;10682;50.874;3.656;2023-06-14T05:10:52;16.30;99.90
21047;DHT22;10682;50.874;3.656;2023-06-14T05:13:19;16.30;99.90
21047;DHT22;10682;50.874;3.656;2023-06-14T05:15:48;16.40;99.90
21047;DHT22;10682;50.874;3.656;2023-06-14T05:18:15;16.60;99.90
21047;DHT22;10682;50.874;3.656;2023-06-14T05:20:43;16.70;99.90
21047;DHT22;10682;50.874;3.656;2023-06-14T05:23:10;16.80;99.90
21047;DHT22;10682;50.874;3.656;2023-06-14T05:25:45;17.00;99.90
21047;DHT22;10682;50.874;3.656;2023-06-14T05:28:13;17.10;99.90
21047;DHT22;10682;50.874;3.656;2023-06-14T05:30:40;17.20;99.90
21047;DHT22;10682;50.874;3.656;2023-06-14T05:33:07;17.30;99.90
21047;DHT22;10682;50.874;3.656;2023-06-14T05:35:34;17.50;99.90
21047;DHT22;10682;50.874;3.656;2023-06-14T05:38:01;17.60;99.90
21047;DHT22;10682;50.874;3.656;2023-06-14T05:40:28;17.80;99.90
21047;DHT22;10682;50.874;3.656;2023-06-14T05:42:55;17.90;99.90
21047;DHT22;10682;50.874;3.656;2023-06-14T05:45:22;18.00;99.90
21047;DHT22;10682;50.874;3.656;2023-06-14T05:47:50;18.20;99.90
21047;DHT22;10682;50.874;3.656;2023-06-14T05:50:17;18.30;99.90
21047;DHT22;10682;50.874;3.656;2023-06-14T05:52:44;18.50;99.90
21047;DHT22;10682;50.874;3.656;2023-06-14T05:55:11;18.70;99.90
21047;DHT22;10682;50.874;3.656;2023-06-14T05:57:40;18.80;99.90
21047;DHT22;10682;50.874;3.656;2023-06-14T06:00:08;18.90;99.90
21047;DHT22;10682;50.874;3.656;2023-06-14T06:02:44;19.00;99.90
21047;DHT22;10682;50.874;3.656;2023-06-14T06:05:12;19.10;99.90
21047;DHT22;10682;50.874;3.656;2023-06-14T06:07:40;19.30;99.90
21047;DHT22;10682;50.874;3.656;2023-06-14T06:10:08;19.40;99.90
21047;DHT22;10682;50.874;3.656;2023-06-14T06:12:35;19.50;99.90
21047;DHT22;10682;50.874;3.656;2023-06-14T06:15:02;19.60;99.90
21047;DHT22;10682;50.874;3.656;2023-06-14T06:17:30;19.70;99.90
21047;DHT22;10682;50.874;3.656;2023-06-14T06:20:16;19.90;99.90
21047;DHT22;10682;50.874;3.656;2023-06-14T06:22:44;20.00;99.90
21047;DHT22;10682;50.874;3.656;2023-06-14T06:25:11;20.10;99.90
21047;DHT22;10682;50.874;3.656;2023-06-14T06:27:37;20.10;99.90
21047;DHT22;10682;50.874;3.656;2023-06-14T06:30:07;20.20;99.90
21047;DHT22;10682;50.874;3.656;2023-06-14T06:32:34;20.40;99.90
21047;DHT22;10682;50.874;3.656;2023-06-14T06:35:01;20.50;99.90
21047;DHT22;10682;50.874;3.656;2023-06-14T06:37:28;20.60;99.90
21047;DHT22;10682;50.874;3.656;2023-06-14T06:39:55;20.70;99.90
21047;DHT22;10682;50.874;3.656;2023-06-14T06:42:22;20.80;99.90
21047;DHT22;10682;50.874;3.656;2023-06-14T06:44:49;20.90;99.90
21047;DHT22;10682;50.874;3.656;2023-06-14T06:47:17;21.00;99.90
21047;DHT22;10682;50.874;3.656;2023-06-14T06:49:44;21.20;99.90
21047;DHT22;10682;50.874;3.656;2023-06-14T06:52:11;21.30;99.90
21047;DHT22;10682;50.874;3.656;2023-06-14T06:54:38;21.40;99.90
21047;DHT22;10682;50.874;3.656;2023-06-14T06:57:05;21.50;99.90
21047;DHT22;10682;50.874;3.656;2023-06-14T06:59:33;21.70;99.90
21047;DHT22;10682;50.874;3.656;2023-06-14T07:02:00;21.80;99.90
21047;DHT22;10682;50.874;3.656;2023-06-14T07:04:27;21.80;99.90
21047;DHT22;10682;50.874;3.656;2023-06-14T07:06:54;22.00;99.90
21047;DHT22;10682;50.874;3.656;2023-06-14T07:09:22;22.10;99.90
21047;DHT22;10682;50.874;3.656;2023-06-14T07:11:49;22.30;99.90
21047;DHT22;10682;50.874;3.656;2023-06-14T07:14:16;22.40;99.90
21047;DHT22;10682;50.874;3.656;2023-06-14T07:16:43;22.60;99.90
21047;DHT22;10682;50.874;3.656;2023-06-14T07:19:11;22.70;99.90
21047;DHT22;10682;50.874;3.656;2023-06-14T07:21:38;22.80;99.90
21047;DHT22;10682;50.874;3.656;2023-06-14T07:24:06;22.90;99.90
21047;DHT22;10682;50.874;3.656;2023-06-14T07:26:34;23.00;99.90
21047;DHT22;10682;50.874;3.656;2023-06-14T07:29:02;23.10;99.90
21047;DHT22;10682;50.874;3.656;2023-06-14T07:31:29;23.20;99.90
21047;DHT22;10682;50.874;3.656;2023-06-14T07:33:56;23.30;99.90
21047;DHT22;10682;50.874;3.656;2023-06-14T07:36:23;23.40;99.90
21047;DHT22;10682;50.874;3.656;2023-06-14T07:38:50;23.50;99.90
21047;DHT22;10682;50.874;3.656;2023-06-14T07:41:17;23.60;99.90
21047;DHT22;10682;50.874;3.656;2023-06-14T07:43:44;23.70;99.90
21047;DHT22;10682;50.874;3.656;2023-06-14T07:46:11;23.90;99.90
21047;DHT22;10682;50.874;3.656;2023-06-14T07:48:39;24.00;99.90
21047;DHT22;10682;50.874;3.656;2023-06-14T07:51:06;24.10;99.90
21047;DHT22;10682;50.874;3.656;2023-06-14T07:53:33;24.20;99.90
21047;DHT22;10682;50.874;3.656;2023-06-14T07:56:00;24.40;99.90
21047;DHT22;10682;50.874;3.656;2023-06-14T07:58:29;24.50;99.90
21047;DHT22;10682;50.874;3.656;2023-06-14T08:00:56;24.60;99.90
21047;DHT22;10682;50.874;3.656;2023-06-14T08:03:23;24.70;99.90
21047;DHT22;10682;50.874;3.656;2023-06-14T08:05:50;24.90;99.90
21047;DHT22;10682;50.874;3.656;2023-06-14T08:08:17;24.90;99.90
21047;DHT22;10682;50.874;3.656;2023-06-14T08:10:45;25.00;99.90
21047;DHT22;10682;50.874;3.656;2023-06-14T08:13:12;25.10;99.90
21047;DHT22;10682;50.874;3.656;2023-06-14T08:15:39;25.20;99.90
21047;DHT22;10682;50.874;3.656;2023-06-14T08:18:07;25.20;99.90
21047;DHT22;10682;50.874;3.656;2023-06-14T08:20:34;25.30;99.90
21047;DHT22;10682;50.874;3.656;2023-06-14T08:23:03;25.40;99.90
21047;DHT22;10682;50.874;3.656;2023-06-14T08:25:30;25.60;99.90
21047;DHT22;10682;50.874;3.656;2023-06-14T08:27:59;25.60;99.90
21047;DHT22;10682;50.874;3.656;2023-06-14T08:30:26;25.80;99.90
21047;DHT22;10682;50.874;3.656;2023-06-14T08:32:53;25.90;99.90
21047;DHT22;10682;50.874;3.656;2023-06-14T08:35:41;26.20;99.90
21047;DHT22;10682;50.874;3.656;2023-06-14T08:38:08;26.50;99.90
21047;DHT22;10682;50.874;3.656;2023-06-14T08:40:38;26.70;99.90
21047;DHT22;10682;50.874;3.656;2023-06-14T08:43:05;26.90;99.90
21047;DHT22;10682;50.874;3.656;2023-06-14T08:45:32;27.30;99.90
21047;DHT22;10682;50.874;3.656;2023-06-14T08:47:59;27.50;99.90
21047;DHT22;10682;50.874;3.656;2023-06-14T08:50:28;27.80;99.90
21047;DHT22;10682;50.874;3.656;2023-06-14T08:53:01;28.10;99.90
21047;DHT22;10682;50.874;3.656;2023-06-14T08:55:31;28.60;99.90
21047;DHT22;10682;50.874;3.656;2023-06-14T08:58:03;29.00;99.90
21047;DHT22;10682;50.874;3.656;2023-06-14T09:00:32;29.10;99.90
21047;DHT22;10682;50.874;3.656;2023-06-14T09:03:00;29.10;99.90
21047;DHT22;10682;50.874;3.656;2023-06-14T09:05:28;29.00;99.90
21047;DHT22;10682;50.874;3.656;2023-06-14T09:07:55;29.00;99.90
21047;DHT22;10682;50.874;3.656;2023-06-14T09:10:31;29.00;99.90
21047;DHT22;10682;50.874;3.656;2023-06-14T09:13:04;29.10;99.90
21047;DHT22;10682;50.874;3.656;2023-06-14T09:15:31;29.20;99.90
21047;DHT22;10682;50.874;3.656;2023-06-14T09:18:01;29.20;99.90
21047;DHT22;10682;50.874;3.656;2023-06-14T09:20:30;29.30;99.90
21047;DHT22;10682;50.874;3.656;2023-06-14T09:22:58;29.30;99.90
21047;DHT22;10682;50.874;3.656;2023-06-14T09:25:27;29.40;99.90
21047;DHT22;10682;50.874;3.656;2023-06-14T09:28:07;29.50;99.90
21047;DHT22;10682;50.874;3.656;2023-06-14T09:30:37;29.50;99.90
21047;DHT22;10682;50.874;3.656;2023-06-14T09:33:04;29.50;99.90
21047;DHT22;10682;50.874;3.656;2023-06-14T09:35:32;29.60;99.90
21047;DHT22;10682;50.874;3.656;2023-06-14T09:37:59;29.70;99.90
21047;DHT22;10682;50.874;3.656;2023-06-14T09:40:27;29.70;99.90
21047;DHT22;10682;50.874;3.656;2023-06-14T09:42:54;29.70;99.90
21047;DHT22;10682;50.874;3.656;2023-06-14T09:45:25;29.70;99.90
21047;DHT22;10682;50.874;3.656;2023-06-14T09:47:57;29.80;99.90
21047;DHT22;10682;50.874;3.656;2023-06-14T09:50:34;29.80;99.90
21047;DHT22;10682;50.874;3.656;2023-06-14T09:53:10;29.70;99.90
21047;DHT22;10682;50.874;3.656;2023-06-14T09:55:40;29.80;99.90
21047;DHT22;10682;50.874;3.656;2023-06-14T09:58:09;29.90;99.90
21047;DHT22;10682;50.874;3.656;2023-06-14T10:00:37;30.00;99.90
21047;DHT22;10682;50.874;3.656;2023-06-14T10:03:28;29.90;99.90
21047;DHT22;10682;50.874;3.656;2023-06-14T10:06:10;30.00;99.90
21047;DHT22;10682;50.874;3.656;2023-06-14T10:08:38;30.20;99.90
21047;DHT22;10682;50.874;3.656;2023-06-14T10:11:05;30.30;99.90
21047;DHT22;10682;50.874;3.656;2023-06-14T10:13:34;30.40;99.90
21047;DHT22;10682;50.874;3.656;2023-06-14T10:16:31;30.40;99.90
21047;DHT22;10682;50.874;3.656;2023-06-14T10:19:07;30.40;99.90
21047;DHT22;10682;50.874;3.656;2023-06-14T10:24:33;30.70;99.90
21047;DHT22;10682;50.874;3.656;2023-06-14T10:27:02;30.70;99.90
21047;DHT22;10682;50.874;3.656;2023-06-14T10:29:29;30.90;99.90
21047;DHT22;10682;50.874;3.656;2023-06-14T10:32:00;31.10;99.90
21047;DHT22;10682;50.874;3.656;2023-06-14T10:34:29;31.40;99.90
21047;DHT22;10682;50.874;3.656;2023-06-14T10:37:05;31.50;99.90
21047;DHT22;10682;50.874;3.656;2023-06-14T10:39:43;31.50;99.90
21047;DHT22;10682;50.874;3.656;2023-06-14T10:42:14;31.60;99.90
21047;DHT22;10682;50.874;3.656;2023-06-14T10:49:52;32.20;99.90
21047;DHT22;10682;50.874;3.656;2023-06-14T10:52:27;32.40;99.90
21047;DHT22;10682;50.874;3.656;2023-06-14T10:55:14;32.40;99.90
21047;DHT22;10682;50.874;3.656;2023-06-14T10:57:52;32.40;99.90
21047;DHT22;10682;50.874;3.656;2023-06-14T11:00:27;32.30;99.90
21047;DHT22;10682;50.874;3.656;2023-06-14T11:05:53;32.40;99.90
21047;DHT22;10682;50.874;3.656;2023-06-14T11:11:32;32.30;99.90
21047;DHT22;10682;50.874;3.656;2023-06-14T11:14:02;32.40;99.90
21047;DHT22;10682;50.874;3.656;2023-06-14T11:16:30;32.60;99.90
21047;DHT22;10682;50.874;3.656;2023-06-14T11:19:03;32.50;99.90
21047;DHT22;10682;50.874;3.656;2023-06-14T11:21:32;32.60;99.90
21047;DHT22;10682;50.874;3.656;2023-06-14T11:24:00;32.70;99.90
21047;DHT22;10682;50.874;3.656;2023-06-14T11:26:28;32.60;99.90
21047;DHT22;10682;50.874;3.656;2023-06-14T11:28:58;32.50;99.90
21047;DHT22;10682;50.874;3.656;2023-06-14T11:31:27;32.50;99.90
21047;DHT22;10682;50.874;3.656;2023-06-14T11:33:58;32.70;99.90
21047;DHT22;10682;50.874;3.656;2023-06-14T11:36:30;32.70;99.90
21047;DHT22;10682;50.874;3.656;2023-06-14T11:39:02;32.70;99.90
21047;DHT22;10682;50.874;3.656;2023-06-14T11:41:36;32.70;99.90
21047;DHT22;10682;50.874;3.656;2023-06-14T11:44:11;32.60;99.90
21047;DHT22;10682;50.874;3.656;2023-06-14T11:46:38;32.50;99.90
21047;DHT22;10682;50.874;3.656;2023-06-14T11:49:07;32.50;99.90
21047;DHT22;10682;50.874;3.656;2023-06-14T11:51:36;32.60;99.90
21047;DHT22;10682;50.874;3.656;2023-06-14T11:54:06;32.50;99.90
21047;DHT22;10682;50.874;3.656;2023-06-14T11:56:34;32.40;99.90
21047;DHT22;10682;50.874;3.656;2023-06-14T11:59:03;32.30;99.90
21047;DHT22;10682;50.874;3.656;2023-06-14T12:01:36;32.50;99.90
21047;DHT22;10682;50.874;3.656;2023-06-14T12:04:05;32.70;99.90
21047;DHT22;10682;50.874;3.656;2023-06-14T12:06:32;32.80;99.90
21047;DHT22;10682;50.874;3.656;2023-06-14T12:09:03;32.70;99.90
21047;DHT22;10682;50.874;3.656;2023-06-14T12:11:34;32.40;99.90
21047;DHT22;10682;50.874;3.656;2023-06-14T12:14:05;32.30;99.90
21047;DHT22;10682;50.874;3.656;2023-06-14T12:16:38;32.20;99.90
21047;DHT22;10682;50.874;3.656;2023-06-14T12:19:15;32.30;99.90
21047;DHT22;10682;50.874;3.656;2023-06-14T12:21:46;32.20;99.90
21047;DHT22;10682;50.874;3.656;2023-06-14T12:24:17;32.40;99.90
21047;DHT22;10682;50.874;3.656;2023-06-14T12:26:45;32.60;99.90
21047;DHT22;10682;50.874;3.656;2023-06-14T12:29:13;32.60;99.90
21047;DHT22;10682;50.874;3.656;2023-06-14T12:31:40;32.50;99.90
21047;DHT22;10682;50.874;3.656;2023-06-14T12:34:08;32.50;99.90
21047;DHT22;10682;50.874;3.656;2023-06-14T12:36:35;32.70;99.90
21047;DHT22;10682;50.874;3.656;2023-06-14T12:39:08;32.60;99.90
21047;DHT22;10682;50.874;3.656;2023-06-14T12:41:35;32.70;99.90
21047;DHT22;10682;50.874;3.656;2023-06-14T12:44:04;32.60;99.90
21047;DHT22;10682;50.874;3.656;2023-06-14T12:46:31;32.80;99.90
21047;DHT22;10682;50.874;3.656;2023-06-14T12:48:59;33.00;99.90
21047;DHT22;10682;50.874;3.656;2023-06-14T12:51:26;33.30;99.90
21047;DHT22;10682;50.874;3.656;2023-06-14T12:53:53;33.40;99.90
21047;DHT22;10682;50.874;3.656;2023-06-14T12:56:21;33.30;99.90
21047;DHT22;10682;50.874;3.656;2023-06-14T12:58:50;33.30;99.90
21047;DHT22;10682;50.874;3.656;2023-06-14T13:01:18;33.30;99.90
21047;DHT22;10682;50.874;3.656;2023-06-14T13:03:48;33.40;99.90
21047;DHT22;10682;50.874;3.656;2023-06-14T13:06:17;33.50;99.90
21047;DHT22;10682;50.874;3.656;2023-06-14T13:08:44;33.60;99.90
21047;DHT22;10682;50.874;3.656;2023-06-14T13:11:11;33.70;99.90
21047;DHT22;10682;50.874;3.656;2023-06-14T13:13:38;33.70;99.90
21047;DHT22;10682;50.874;3.656;2023-06-14T13:16:05;33.70;99.90
21047;DHT22;10682;50.874;3.656;2023-06-14T13:18:33;33.70;99.90
21047;DHT22;10682;50.874;3.656;2023-06-14T13:21:00;33.80;99.90
21047;DHT22;10682;50.874;3.656;2023-06-14T13:23:28;33.60;99.90
21047;DHT22;10682;50.874;3.656;2023-06-14T13:25:55;33.50;99.90
21047;DHT22;10682;50.874;3.656;2023-06-14T13:28:22;33.70;99.90
21047;DHT22;10682;50.874;3.656;2023-06-14T13:30:49;33.90;99.90
21047;DHT22;10682;50.874;3.656;2023-06-14T13:33:16;33.70;99.90
21047;DHT22;10682;50.874;3.656;2023-06-14T13:35:43;33.60;99.90
21047;DHT22;10682;50.874;3.656;2023-06-14T13:38:10;33.60;99.90
21047;DHT22;10682;50.874;3.656;2023-06-14T13:40:38;33.70;99.90
21047;DHT22;10682;50.874;3.656;2023-06-14T13:43:05;33.70;99.90
21047;DHT22;10682;50.874;3.656;2023-06-14T13:45:32;33.70;99.90
21047;DHT22;10682;50.874;3.656;2023-06-14T13:47:59;33.60;99.90
21047;DHT22;10682;50.874;3.656;2023-06-14T13:50:26;33.50;99.90
21047;DHT22;10682;50.874;3.656;2023-06-14T13:52:53;33.40;99.90
21047;DHT22;10682;50.874;3.656;2023-06-14T13:55:20;33.50;99.90
21047;DHT22;10682;50.874;3.656;2023-06-14T13:57:47;33.60;99.90
21047;DHT22;10682;50.874;3.656;2023-06-14T14:00:14;33.50;99.90
21047;DHT22;10682;50.874;3.656;2023-06-14T14:02:42;33.40;99.90
21047;DHT22;10682;50.874;3.656;2023-06-14T14:05:09;33.10;99.90
21047;DHT22;10682;50.874;3.656;2023-06-14T14:07:36;32.80;99.90
21047;DHT22;10682;50.874;3.656;2023-06-14T14:10:05;32.90;99.90
21047;DHT22;10682;50.874;3.656;2023-06-14T14:12:32;32.70;99.90
21047;DHT22;10682;50.874;3.656;2023-06-14T14:14:59;32.60;99.90
21047;DHT22;10682;50.874;3.656;2023-06-14T14:17:26;32.50;99.90
21047;DHT22;10682;50.874;3.656;2023-06-14T14:19:53;32.60;99.90
21047;DHT22;10682;50.874;3.656;2023-06-14T14:22:20;32.50;99.90
21047;DHT22;10682;50.874;3.656;2023-06-14T14:24:47;32.60;99.90
21047;DHT22;10682;50.874;3.656;2023-06-14T14:27:14;32.30;99.90
21047;DHT22;10682;50.874;3.656;2023-06-14T14:29:41;32.20;99.90
21047;DHT22;10682;50.874;3.656;2023-06-14T14:32:08;32.00;99.90
21047;DHT22;10682;50.874;3.656;2023-06-14T14:34:40;31.80;99.90
21047;DHT22;10682;50.874;3.656;2023-06-14T14:37:07;31.90;99.90
21047;DHT22;10682;50.874;3.656;2023-06-14T14:39:34;31.90;99.90
21047;DHT22;10682;50.874;3.656;2023-06-14T14:42:03;31.80;99.90
21047;DHT22;10682;50.874;3.656;2023-06-14T14:44:30;31.80;99.90
21047;DHT22;10682;50.874;3.656;2023-06-14T14:46:57;31.70;99.90
21047;DHT22;10682;50.874;3.656;2023-06-14T14:49:24;31.50;99.90
21047;DHT22;10682;50.874;3.656;2023-06-14T14:51:51;31.40;99.90
21047;DHT22;10682;50.874;3.656;2023-06-14T14:54:18;31.40;99.90
21047;DHT22;10682;50.874;3.656;2023-06-14T14:56:45;31.50;99.90
21047;DHT22;10682;50.874;3.656;2023-06-14T14:59:12;31.50;99.90
21047;DHT22;10682;50.874;3.656;2023-06-14T15:01:39;31.40;99.90
21047;DHT22;10682;50.874;3.656;2023-06-14T15:04:07;31.40;99.90
21047;DHT22;10682;50.874;3.656;2023-06-14T15:06:34;31.30;99.90
21047;DHT22;10682;50.874;3.656;2023-06-14T15:09:06;31.20;99.90
21047;DHT22;10682;50.874;3.656;2023-06-14T15:11:33;31.10;99.90
21047;DHT22;10682;50.874;3.656;2023-06-14T15:14:00;31.10;99.90
21047;DHT22;10682;50.874;3.656;2023-06-14T15:16:27;31.10;99.90
21047;DHT22;10682;50.874;3.656;2023-06-14T15:18:54;31.00;99.90
21047;DHT22;10682;50.874;3.656;2023-06-14T15:21:21;31.10;99.90
21047;DHT22;10682;50.874;3.656;2023-06-14T15:23:49;31.00;99.90
21047;DHT22;10682;50.874;3.656;2023-06-14T15:26:16;30.90;99.90
21047;DHT22;10682;50.874;3.656;2023-06-14T15:28:43;31.00;99.90
21047;DHT22;10682;50.874;3.656;2023-06-14T15:31:10;30.90;99.90
21047;DHT22;10682;50.874;3.656;2023-06-14T15:33:37;31.00;99.90
21047;DHT22;10682;50.874;3.656;2023-06-14T15:36:05;31.00;99.90
21047;DHT22;10682;50.874;3.656;2023-06-14T15:38:36;31.10;99.90
21047;DHT22;10682;50.874;3.656;2023-06-14T15:41:03;31.00;99.90
21047;DHT22;10682;50.874;3.656;2023-06-14T15:43:30;31.00;99.90
21047;DHT22;10682;50.874;3.656;2023-06-14T15:45:57;31.10;99.90
21047;DHT22;10682;50.874;3.656;2023-06-14T15:48:24;31.00;99.90
21047;DHT22;10682;50.874;3.656;2023-06-14T15:50:51;31.00;99.90
21047;DHT22;10682;50.874;3.656;2023-06-14T15:53:19;30.80;99.90